createdAt,value
2023-01-09T00:01:47.171Z,13.63
2023-01-09T00:04:13.568Z,13.84
2023-01-09T00:06:39.987Z,13.99
2023-01-09T00:09:06.342Z,13.82
2023-01-09T00:11:32.733Z,14.06
2023-01-09T00:13:59.093Z,14.08
2023-01-09T00:16:25.475Z,14.26
2023-01-09T00:18:51.875Z,14.44
2023-01-09T00:21:18.211Z,14.23
2023-01-09T00:23:44.602Z,14.08
2023-01-09T00:26:10.998Z,14.09
2023-01-09T00:28:37.350Z,14.00
2023-01-09T00:31:03.714Z,13.88
2023-01-09T00:33:30.081Z,13.97
2023-01-09T00:35:56.457Z,13.89
2023-01-09T00:38:22.853Z,13.61
2023-01-09T00:40:49.208Z,14.06
2023-01-09T00:43:15.601Z,14.22
2023-01-09T00:45:42.005Z,13.94
2023-01-09T00:48:08.380Z,13.71
2023-01-09T00:50:34.730Z,13.72
2023-01-09T00:53:01.083Z,12.96
2023-01-09T00:55:27.478Z,12.90
2023-01-09T00:57:53.862Z,12.52
2023-01-09T01:00:20.254Z,11.66
2023-01-09T01:02:46.653Z,11.41
2023-01-09T01:05:13.034Z,11.60
2023-01-09T01:07:39.428Z,11.42
2023-01-09T01:10:05.791Z,11.03
2023-01-09T01:12:32.167Z,10.30
2023-01-09T01:14:58.529Z,10.36
2023-01-09T01:17:24.926Z,10.87
2023-01-09T01:19:51.258Z,10.94
2023-01-09T01:22:17.596Z,10.92
2023-01-09T01:24:43.983Z,11.30
2023-01-09T01:27:10.392Z,11.79
2023-01-09T01:29:36.733Z,11.93
2023-01-09T01:32:03.100Z,12.05
2023-01-09T01:34:29.474Z,12.01
2023-01-09T01:36:55.842Z,11.79
2023-01-09T01:39:22.190Z,11.50
2023-01-09T01:41:48.552Z,11.83
2023-01-09T01:44:14.945Z,11.94
2023-01-09T01:46:41.333Z,12.01
2023-01-09T01:49:07.735Z,12.24
2023-01-09T01:51:34.089Z,12.23
2023-01-09T01:54:00.471Z,12.17
2023-01-09T01:56:26.856Z,11.45
2023-01-09T01:58:53.254Z,11.75
2023-01-09T02:01:19.679Z,11.89
2023-01-09T02:03:46.093Z,11.80
2023-01-09T02:06:12.457Z,11.79
2023-01-09T02:08:38.808Z,11.70
2023-01-09T02:11:05.135Z,11.15
2023-01-09T02:13:31.472Z,11.29
2023-01-09T02:15:57.863Z,11.34
2023-01-09T02:18:24.291Z,11.33
2023-01-09T02:20:50.659Z,11.02
2023-01-09T02:23:17.002Z,10.98
2023-01-09T02:25:43.337Z,10.91
2023-01-09T02:28:09.688Z,10.73
2023-01-09T02:30:36.022Z,10.79
2023-01-09T02:33:02.399Z,10.89
2023-01-09T02:35:28.736Z,10.73
2023-01-09T02:37:55.067Z,10.92
2023-01-09T02:40:21.405Z,10.83
2023-01-09T02:42:47.793Z,11.31
2023-01-09T02:45:14.187Z,11.55
2023-01-09T02:47:40.577Z,11.59
2023-01-09T02:50:06.930Z,11.70
2023-01-09T02:52:33.262Z,11.71
2023-01-09T02:54:59.613Z,11.56
2023-01-09T02:57:25.999Z,11.63
2023-01-09T02:59:54.008Z,11.74
2023-01-09T03:02:20.564Z,11.67
2023-01-09T03:04:46.947Z,11.88
2023-01-09T03:07:13.338Z,11.73
2023-01-09T03:09:39.727Z,11.60
2023-01-09T03:12:06.103Z,11.81
2023-01-09T03:14:32.454Z,11.79
2023-01-09T03:16:58.830Z,11.64
2023-01-09T03:19:25.228Z,11.85
2023-01-09T03:21:51.659Z,11.91
2023-01-09T03:24:18.080Z,11.95
2023-01-09T03:26:44.469Z,11.99
2023-01-09T03:29:10.829Z,12.02
2023-01-09T03:31:37.292Z,12.21
2023-01-09T03:34:03.737Z,11.94
2023-01-09T03:36:30.068Z,11.82
2023-01-09T03:38:56.402Z,11.55
2023-01-09T03:41:22.738Z,11.51
2023-01-09T03:43:49.153Z,11.66
2023-01-09T03:46:15.560Z,11.51
2023-01-09T03:48:41.949Z,11.55
2023-01-09T03:51:08.365Z,11.52
2023-01-09T03:53:34.766Z,11.82
2023-01-09T03:56:01.155Z,11.80
2023-01-09T03:58:27.511Z,12.01
2023-01-09T04:00:54.010Z,11.88
2023-01-09T04:03:20.443Z,11.66
2023-01-09T04:05:46.791Z,11.63
2023-01-09T04:08:13.180Z,11.73
2023-01-09T04:10:39.570Z,11.72
2023-01-09T04:13:05.916Z,11.55
2023-01-09T04:15:32.285Z,11.71
2023-01-09T04:17:58.612Z,11.44
2023-01-09T04:20:24.997Z,11.66
2023-01-09T04:22:51.349Z,11.02
2023-01-09T04:25:17.731Z,11.26
2023-01-09T04:27:44.069Z,10.94
2023-01-09T04:30:10.459Z,11.06
2023-01-09T04:32:36.811Z,11.43
2023-01-09T04:35:03.140Z,11.37
2023-01-09T04:37:30.902Z,11.63
2023-01-09T04:39:57.260Z,11.18
2023-01-09T04:42:23.594Z,11.42
2023-01-09T04:44:49.989Z,11.50
2023-01-09T04:47:16.344Z,11.62
2023-01-09T04:49:42.703Z,11.79
2023-01-09T04:52:09.072Z,11.72
2023-01-09T04:54:35.417Z,11.85
2023-01-09T04:57:01.753Z,11.76
2023-01-09T04:59:28.129Z,11.86
2023-01-09T05:01:54.632Z,11.82
2023-01-09T05:04:21.165Z,11.86
2023-01-09T05:06:47.515Z,11.72
2023-01-09T05:09:13.885Z,11.49
2023-01-09T05:11:40.269Z,11.38
2023-01-09T05:14:06.617Z,11.40
2023-01-09T05:16:33.005Z,11.62
2023-01-09T05:18:59.354Z,11.58
2023-01-09T05:21:25.733Z,11.69
2023-01-09T05:23:52.131Z,11.60
2023-01-09T05:26:18.487Z,11.61
2023-01-09T05:28:44.815Z,11.71
2023-01-09T05:31:11.200Z,11.55
2023-01-09T05:33:37.599Z,11.75
2023-01-09T05:36:03.976Z,11.85
2023-01-09T05:38:30.387Z,11.72
2023-01-09T05:40:56.720Z,11.60
2023-01-09T05:43:23.093Z,11.76
2023-01-09T05:45:49.512Z,11.53
2023-01-09T05:48:15.957Z,11.75
2023-01-09T05:50:42.333Z,11.86
2023-01-09T05:53:08.703Z,11.72
2023-01-09T05:55:35.092Z,11.75
2023-01-09T05:58:01.487Z,11.85
2023-01-09T06:00:27.858Z,11.78
2023-01-09T06:02:54.283Z,11.81
2023-01-09T06:05:20.698Z,11.70
2023-01-09T06:07:47.065Z,11.67
2023-01-09T06:10:13.420Z,11.72
2023-01-09T06:12:39.794Z,11.39
2023-01-09T06:15:08.772Z,11.62
2023-01-09T06:17:35.344Z,11.68
2023-01-09T06:20:01.735Z,11.60
2023-01-09T06:22:28.144Z,11.51
2023-01-09T06:24:54.546Z,11.72
2023-01-09T06:27:20.891Z,11.93
2023-01-09T06:29:47.270Z,12.05
2023-01-09T06:32:13.631Z,12.00
2023-01-09T06:34:39.952Z,12.01
2023-01-09T06:37:06.362Z,11.91
2023-01-09T06:39:32.771Z,11.87
2023-01-09T06:41:59.109Z,11.72
2023-01-09T06:44:25.480Z,11.65
2023-01-09T06:46:51.885Z,11.72
2023-01-09T06:49:18.236Z,11.77
2023-01-09T06:51:44.594Z,11.74
2023-01-09T06:54:10.988Z,11.65
2023-01-09T06:56:37.379Z,11.98
2023-01-09T06:59:03.790Z,11.89
2023-01-09T07:01:30.226Z,11.81
2023-01-09T07:03:56.701Z,11.96
2023-01-09T07:06:23.055Z,12.03
2023-01-09T07:08:49.407Z,12.18
2023-01-09T07:11:15.815Z,12.19
2023-01-09T07:13:42.210Z,12.22
2023-01-09T07:16:08.636Z,12.30
2023-01-09T07:18:35.035Z,12.28
2023-01-09T07:21:01.413Z,12.43
2023-01-09T07:23:27.859Z,12.43
2023-01-09T07:25:54.243Z,12.34
2023-01-09T07:28:20.633Z,12.38
2023-01-09T07:30:47.033Z,12.26
2023-01-09T07:33:13.429Z,12.01
2023-01-09T07:35:39.775Z,12.11
2023-01-09T07:38:06.151Z,12.32
2023-01-09T07:40:32.553Z,12.33
2023-01-09T07:42:58.904Z,12.24
2023-01-09T07:45:25.302Z,12.27
2023-01-09T07:47:51.682Z,12.44
2023-01-09T07:50:18.077Z,12.29
2023-01-09T07:52:44.420Z,12.34
2023-01-09T07:55:10.806Z,11.93
2023-01-09T07:57:37.157Z,12.23
2023-01-09T08:00:03.536Z,12.20
2023-01-09T08:02:29.959Z,12.35
2023-01-09T08:04:56.380Z,12.36
2023-01-09T08:07:22.726Z,12.27
2023-01-09T08:09:49.085Z,12.24
2023-01-09T08:12:15.498Z,12.43
2023-01-09T08:14:41.881Z,12.33
2023-01-09T08:17:08.225Z,12.15
2023-01-09T08:19:34.602Z,12.04
2023-01-09T08:22:00.990Z,11.91
2023-01-09T08:24:27.363Z,11.67
2023-01-09T08:26:53.755Z,12.12
2023-01-09T08:29:20.105Z,12.19
2023-01-09T08:31:46.617Z,11.84
2023-01-09T08:34:12.981Z,11.19
2023-01-09T08:36:39.370Z,11.17
2023-01-09T08:39:05.757Z,11.94
2023-01-09T08:41:32.147Z,12.10
2023-01-09T08:43:58.529Z,12.17
2023-01-09T08:46:24.931Z,12.37
2023-01-09T08:48:51.295Z,12.34
2023-01-09T08:51:17.642Z,12.47
2023-01-09T08:53:43.993Z,12.50
2023-01-09T08:56:10.382Z,12.60
2023-01-09T08:58:36.808Z,12.38
2023-01-09T09:01:03.205Z,12.17
2023-01-09T09:03:29.544Z,12.17
2023-01-09T09:05:55.887Z,12.06
2023-01-09T09:08:22.214Z,11.87
2023-01-09T09:10:48.612Z,11.79
2023-01-09T09:13:14.977Z,12.16
2023-01-09T09:15:41.412Z,12.27
2023-01-09T09:18:07.757Z,12.10
2023-01-09T09:20:34.109Z,11.85
2023-01-09T09:23:00.444Z,11.92
2023-01-09T09:25:26.861Z,11.64
2023-01-09T09:27:53.214Z,12.01
2023-01-09T09:30:19.584Z,11.70
2023-01-09T09:32:45.977Z,12.00
2023-01-09T09:35:12.333Z,12.03
2023-01-09T09:37:38.718Z,11.70
2023-01-09T09:40:17.593Z,11.63
2023-01-09T09:42:44.943Z,11.80
2023-01-09T09:45:11.342Z,11.10
2023-01-09T09:47:37.732Z,11.03
2023-01-09T09:50:04.099Z,10.84
2023-01-09T09:52:30.495Z,10.95
2023-01-09T09:54:56.863Z,10.82
2023-01-09T09:57:23.248Z,10.38
2023-01-09T09:59:49.601Z,10.45
2023-01-09T10:02:16.032Z,10.47
2023-01-09T10:04:42.406Z,10.49
2023-01-09T10:07:08.797Z,10.73
2023-01-09T10:09:35.162Z,10.46
2023-01-09T10:12:01.506Z,10.19
2023-01-09T10:14:27.848Z,10.35
2023-01-09T10:16:54.192Z,10.41
2023-01-09T10:19:20.569Z,10.39
2023-01-09T10:21:46.973Z,10.33
2023-01-09T10:24:13.376Z,10.59
2023-01-09T10:26:39.810Z,10.76
2023-01-09T10:29:06.187Z,10.58
2023-01-09T10:31:32.612Z,10.42
2023-01-09T10:33:59.054Z,10.64
2023-01-09T10:36:25.473Z,10.70
2023-01-09T10:38:51.826Z,10.24
2023-01-09T10:41:18.203Z,10.83
2023-01-09T10:43:44.577Z,10.71
2023-01-09T10:46:11.018Z,11.08
2023-01-09T10:48:37.409Z,10.96
2023-01-09T10:51:03.793Z,10.90
2023-01-09T10:53:30.155Z,11.19
2023-01-09T10:55:56.542Z,10.80
2023-01-09T10:58:22.942Z,11.26
2023-01-09T11:00:49.293Z,11.67
2023-01-09T11:03:15.756Z,11.07
2023-01-09T11:05:42.153Z,11.06
2023-01-09T11:08:08.508Z,11.33
2023-01-09T11:10:34.859Z,11.62
2023-01-09T11:13:01.243Z,11.18
2023-01-09T11:15:27.619Z,11.01
2023-01-09T11:17:54.055Z,11.13
2023-01-09T11:20:20.451Z,10.92
2023-01-09T11:22:46.799Z,11.02
2023-01-09T11:25:13.192Z,11.27
2023-01-09T11:27:39.536Z,11.08
2023-01-09T11:30:06.056Z,11.08
2023-01-09T11:32:32.437Z,11.36
2023-01-09T11:34:58.789Z,11.26
2023-01-09T11:37:25.174Z,11.04
2023-01-09T11:39:51.538Z,11.32
2023-01-09T11:42:17.879Z,11.59
2023-01-09T11:44:44.216Z,11.42
2023-01-09T11:47:10.590Z,11.75
2023-01-09T11:49:36.934Z,11.87
2023-01-09T11:52:03.329Z,11.68
2023-01-09T11:54:29.739Z,11.78
2023-01-09T11:56:56.121Z,11.87
2023-01-09T11:59:22.539Z,11.55
2023-01-09T12:01:48.917Z,11.36
2023-01-09T12:04:15.260Z,11.20
2023-01-09T12:06:41.642Z,11.28
2023-01-09T12:09:08.246Z,11.60
2023-01-09T12:11:34.667Z,11.43
2023-01-09T12:14:01.134Z,11.17
2023-01-09T12:16:27.586Z,11.01
2023-01-09T12:18:54.007Z,10.90
2023-01-09T12:21:20.367Z,10.31
2023-01-09T12:23:46.760Z,10.28
2023-01-09T12:26:13.102Z,10.14
2023-01-09T12:28:39.490Z,9.98
2023-01-09T12:31:05.843Z,10.30
2023-01-09T12:33:32.193Z,10.41
2023-01-09T12:35:58.517Z,10.34
2023-01-09T12:38:24.910Z,10.45
2023-01-09T12:40:51.441Z,10.61
2023-01-09T12:43:17.859Z,10.88
2023-01-09T12:45:44.235Z,11.09
2023-01-09T12:48:10.603Z,11.38
2023-01-09T12:50:36.973Z,11.31
2023-01-09T12:53:03.327Z,11.49
2023-01-09T12:55:29.665Z,11.12
2023-01-09T12:57:56.059Z,11.43
2023-01-09T13:00:22.436Z,11.17
2023-01-09T13:02:49.532Z,11.29
2023-01-09T13:05:16.778Z,11.47
2023-01-09T13:07:43.127Z,11.62
2023-01-09T13:10:09.524Z,11.45
2023-01-09T13:12:35.887Z,11.54
2023-01-09T13:15:02.244Z,11.75
2023-01-09T13:17:28.927Z,11.27
2023-01-09T13:19:55.277Z,11.45
2023-01-09T13:22:21.708Z,10.78
2023-01-09T13:24:48.069Z,10.65
2023-01-09T13:27:14.454Z,10.01
2023-01-09T13:29:40.849Z,10.07
2023-01-09T13:32:07.192Z,9.88
2023-01-09T13:34:33.542Z,9.44
2023-01-09T13:37:00.077Z,9.19
2023-01-09T13:39:26.486Z,9.49
2023-01-09T13:41:52.815Z,9.63
2023-01-09T13:44:19.199Z,9.42
2023-01-09T13:46:45.542Z,9.56
2023-01-09T13:49:11.906Z,9.93
2023-01-09T13:51:38.292Z,9.66
2023-01-09T13:54:04.695Z,9.85
2023-01-09T13:56:31.055Z,9.87
2023-01-09T13:58:57.455Z,9.76
2023-01-09T14:01:23.847Z,10.10
2023-01-09T14:03:50.191Z,9.80
2023-01-09T14:06:16.539Z,9.96
2023-01-09T14:08:42.926Z,10.13
2023-01-09T14:11:09.322Z,10.17
2023-01-09T14:13:35.675Z,10.51
2023-01-09T14:16:02.105Z,10.60
2023-01-09T14:18:28.524Z,10.58
2023-01-09T14:20:54.921Z,10.72
2023-01-09T14:23:39.021Z,10.80
2023-01-09T14:26:07.611Z,10.90
2023-01-09T14:28:33.957Z,10.81
2023-01-09T14:31:00.348Z,10.72
2023-01-09T14:33:26.744Z,10.86
2023-01-09T14:35:53.099Z,10.95
2023-01-09T14:38:19.445Z,10.69
2023-01-09T14:40:45.793Z,10.48
2023-01-09T14:43:12.479Z,10.69
2023-01-09T14:45:38.899Z,10.79
2023-01-09T14:48:05.272Z,10.71
2023-01-09T14:50:31.643Z,10.61
2023-01-09T14:52:57.982Z,10.72
2023-01-09T14:55:24.370Z,10.72
2023-01-09T14:57:50.719Z,10.75
2023-01-09T15:00:17.110Z,10.90
2023-01-09T15:02:43.525Z,10.89
2023-01-09T15:05:09.858Z,10.87
2023-01-09T15:07:36.247Z,10.84
2023-01-09T15:10:02.657Z,10.86
2023-01-09T15:12:29.003Z,10.65
2023-01-09T15:14:55.357Z,10.64
2023-01-09T15:17:21.681Z,10.63
2023-01-09T15:19:48.059Z,10.63
2023-01-09T15:22:14.402Z,10.85
2023-01-09T15:24:40.780Z,10.81
2023-01-09T15:27:07.174Z,10.92
2023-01-09T15:29:33.517Z,10.89
2023-01-09T15:31:59.997Z,10.97
2023-01-09T15:34:26.413Z,10.95
2023-01-09T15:36:52.918Z,10.93
2023-01-09T15:39:19.343Z,10.77
2023-01-09T15:41:45.693Z,10.68
2023-01-09T15:44:12.100Z,10.53
2023-01-09T15:46:38.603Z,10.39
2023-01-09T15:49:04.944Z,10.62
2023-01-09T15:51:31.318Z,10.60
2023-01-09T15:53:57.660Z,10.47
2023-01-09T15:56:24.153Z,10.38
2023-01-09T15:58:50.618Z,10.68
2023-01-09T16:01:17.137Z,10.48
2023-01-09T16:03:43.576Z,10.60
2023-01-09T16:06:09.976Z,10.66
2023-01-09T16:08:36.379Z,10.63
2023-01-09T16:11:02.779Z,10.60
2023-01-09T16:13:29.153Z,10.63
2023-01-09T16:15:55.489Z,10.52
2023-01-09T16:18:21.835Z,10.66
2023-01-09T16:20:48.215Z,10.88
2023-01-09T16:23:14.631Z,10.82
2023-01-09T16:25:41.022Z,10.83
2023-01-09T16:28:08.533Z,10.75
2023-01-09T16:30:34.924Z,10.86
2023-01-09T16:33:01.251Z,10.42
2023-01-09T16:35:27.595Z,10.62
2023-01-09T16:37:53.935Z,10.73
2023-01-09T16:40:20.321Z,10.65
2023-01-09T16:42:46.736Z,10.61
2023-01-09T16:45:13.080Z,10.49
2023-01-09T16:47:39.420Z,10.60
2023-01-09T16:50:05.771Z,10.49
2023-01-09T16:52:32.162Z,10.65
2023-01-09T16:54:58.511Z,9.39
2023-01-09T16:57:24.846Z,10.02
2023-01-09T16:59:51.186Z,10.15
2023-01-09T17:02:17.655Z,10.50
2023-01-09T17:04:44.030Z,10.39
2023-01-09T17:07:10.401Z,10.40
2023-01-09T17:09:36.769Z,10.55
2023-01-09T17:12:03.170Z,10.34
2023-01-09T17:14:29.553Z,10.00
2023-01-09T17:16:55.964Z,10.13
2023-01-09T17:19:22.441Z,10.34
2023-01-09T17:21:48.824Z,10.49
2023-01-09T17:24:15.227Z,10.30
2023-01-09T17:26:41.577Z,10.55
2023-01-09T17:29:07.917Z,10.73
2023-01-09T17:31:34.296Z,10.37
2023-01-09T17:34:00.654Z,10.71
2023-01-09T17:36:27.044Z,10.47
2023-01-09T17:38:53.390Z,10.53
2023-01-09T17:41:19.743Z,10.73
2023-01-09T17:43:46.904Z,10.75
2023-01-09T17:46:13.329Z,10.56
2023-01-09T17:48:39.711Z,11.07
2023-01-09T17:51:06.038Z,10.70
2023-01-09T17:53:32.425Z,10.78
2023-01-09T17:55:58.807Z,10.79
2023-01-09T17:58:25.160Z,10.90
2023-01-09T18:00:51.543Z,10.92
2023-01-09T18:03:17.924Z,11.14
2023-01-09T18:05:44.284Z,11.12
2023-01-09T18:08:10.682Z,10.89
2023-01-09T18:10:37.050Z,10.67
2023-01-09T18:13:03.454Z,10.72
2023-01-09T18:15:29.846Z,10.83
2023-01-09T18:17:56.247Z,11.04
2023-01-09T18:20:22.648Z,11.12
2023-01-09T18:22:49.049Z,11.20
2023-01-09T18:25:15.415Z,11.18
2023-01-09T18:27:41.768Z,10.92
2023-01-09T18:30:08.142Z,11.24
2023-01-09T18:32:34.483Z,11.11
2023-01-09T18:35:00.839Z,11.21
2023-01-09T18:37:27.211Z,11.24
2023-01-09T18:39:53.578Z,11.19
2023-01-09T18:42:19.980Z,11.19
2023-01-09T18:44:46.332Z,11.10
2023-01-09T18:47:12.735Z,11.38
2023-01-09T18:49:39.102Z,11.26
2023-01-09T18:52:07.561Z,10.83
2023-01-09T18:54:34.096Z,10.89
2023-01-09T18:57:00.449Z,11.10
2023-01-09T18:59:26.810Z,11.07
2023-01-09T19:01:53.174Z,11.26
2023-01-09T19:04:19.614Z,11.33
2023-01-09T19:06:46.017Z,11.28
2023-01-09T19:09:12.405Z,11.22
2023-01-09T19:11:38.776Z,11.47
2023-01-09T19:14:05.139Z,11.55
2023-01-09T19:16:31.607Z,11.59
2023-01-09T19:18:58.041Z,11.43
2023-01-09T19:21:24.424Z,11.12
2023-01-09T19:23:50.795Z,11.42
2023-01-09T19:26:17.185Z,11.52
2023-01-09T19:28:43.576Z,11.52
2023-01-09T19:31:10.001Z,11.29
2023-01-09T19:33:36.432Z,11.42
2023-01-09T19:36:02.780Z,11.10
2023-01-09T19:38:29.132Z,11.16
2023-01-09T19:40:55.509Z,11.41
2023-01-09T19:43:21.864Z,11.38
2023-01-09T19:45:48.248Z,11.35
2023-01-09T19:48:14.703Z,10.96
2023-01-09T19:50:41.073Z,11.08
2023-01-09T19:53:07.423Z,10.74
2023-01-09T19:55:33.820Z,11.00
2023-01-09T19:58:00.182Z,11.01
2023-01-09T20:00:26.718Z,11.12
2023-01-09T20:02:53.059Z,11.26
2023-01-09T20:05:19.407Z,11.25
2023-01-09T20:07:45.787Z,10.99
2023-01-09T20:10:12.141Z,10.82
2023-01-09T20:12:38.533Z,10.95
2023-01-09T20:15:04.890Z,11.10
2023-01-09T20:17:31.241Z,10.96
2023-01-09T20:19:57.631Z,11.21
2023-01-09T20:22:24.051Z,10.91
2023-01-09T20:24:50.430Z,11.12
2023-01-09T20:27:16.780Z,11.28
2023-01-09T20:29:43.179Z,11.02
2023-01-09T20:32:09.560Z,11.11
2023-01-09T20:34:35.911Z,11.09
2023-01-09T20:37:02.315Z,11.22
2023-01-09T20:39:28.693Z,11.23
2023-01-09T20:41:55.055Z,11.10
2023-01-09T20:44:21.614Z,11.11
2023-01-09T20:46:48.257Z,10.94
2023-01-09T20:49:14.715Z,10.72
2023-01-09T20:51:41.073Z,10.63
2023-01-09T20:54:07.544Z,10.53
2023-01-09T20:56:33.910Z,10.85
2023-01-09T20:59:00.274Z,10.75
2023-01-09T21:01:26.808Z,10.86
2023-01-09T21:03:53.294Z,10.94
2023-01-09T21:06:19.740Z,10.58
2023-01-09T21:08:46.116Z,10.37
2023-01-09T21:11:12.586Z,10.61
2023-01-09T21:13:38.963Z,9.96
2023-01-09T21:16:06.287Z,10.30
2023-01-09T21:18:33.086Z,10.30
2023-01-09T21:20:59.476Z,10.58
2023-01-09T21:23:25.861Z,10.76
2023-01-09T21:25:52.224Z,10.40
2023-01-09T21:28:18.571Z,10.60
2023-01-09T21:30:44.913Z,10.62
2023-01-09T21:33:11.274Z,10.53
2023-01-09T21:35:37.615Z,10.09
2023-01-09T21:38:04.070Z,10.53
2023-01-09T21:40:30.504Z,10.83
2023-01-09T21:42:56.884Z,10.97
2023-01-09T21:45:23.242Z,10.99
2023-01-09T21:47:49.692Z,11.05
2023-01-09T21:50:17.421Z,10.77
2023-01-09T21:52:43.974Z,10.94
2023-01-09T21:55:10.330Z,10.98
2023-01-09T21:57:36.672Z,10.96
2023-01-09T22:00:03.062Z,11.17
2023-01-09T22:02:29.407Z,11.17
2023-01-09T22:04:55.808Z,11.20
2023-01-09T22:07:22.189Z,10.90
2023-01-09T22:09:48.569Z,10.97
2023-01-09T22:12:14.922Z,11.19
2023-01-09T22:14:41.288Z,11.13
2023-01-09T22:17:07.672Z,11.13
2023-01-09T22:19:34.026Z,11.36
2023-01-09T22:22:00.423Z,11.12
2023-01-09T22:24:26.794Z,11.18
2023-01-09T22:26:53.122Z,10.92
2023-01-09T22:29:19.478Z,11.20
2023-01-09T22:31:45.945Z,11.31
2023-01-09T22:34:12.349Z,11.41
2023-01-09T22:36:38.784Z,11.35
2023-01-09T22:39:05.162Z,11.37
2023-01-09T22:41:31.504Z,11.40
2023-01-09T22:43:57.832Z,11.28
2023-01-09T22:46:24.273Z,11.25
2023-01-09T22:48:50.638Z,11.17
2023-01-09T22:51:16.976Z,11.16
2023-01-09T22:53:43.339Z,11.41
2023-01-09T22:56:09.687Z,11.54
2023-01-09T22:58:36.047Z,11.41
2023-01-09T23:01:02.384Z,11.26
2023-01-09T23:03:28.742Z,11.24
2023-01-09T23:05:55.084Z,11.25
2023-01-09T23:08:21.431Z,11.19
2023-01-09T23:10:47.813Z,10.95
2023-01-09T23:13:14.197Z,10.90
2023-01-09T23:15:40.619Z,10.77
2023-01-09T23:18:07.029Z,10.61
2023-01-09T23:20:33.396Z,10.47
2023-01-09T23:22:59.752Z,10.92
2023-01-09T23:25:26.133Z,11.06
2023-01-09T23:27:52.519Z,11.17
2023-01-09T23:30:18.898Z,11.11
2023-01-09T23:32:45.297Z,11.11
2023-01-09T23:35:11.651Z,11.11
2023-01-09T23:37:37.996Z,11.06
2023-01-09T23:40:04.374Z,11.33
2023-01-09T23:42:30.756Z,10.95
2023-01-09T23:44:57.114Z,11.09
2023-01-09T23:47:23.468Z,11.20
2023-01-09T23:49:49.837Z,11.07
2023-01-09T23:52:16.225Z,11.19
2023-01-09T23:54:42.612Z,11.09
2023-01-09T23:57:08.985Z,10.82
2023-01-09T23:59:35.376Z,10.66
